createdAt,value
2018-09-27T00:00:58.462Z,67.72
2018-09-27T00:03:27.246Z,67.61
2018-09-27T00:05:57.288Z,67.80
2018-09-27T00:08:26.673Z,67.85
2018-09-27T00:10:55.424Z,67.36
2018-09-27T00:13:24.270Z,67.98
2018-09-27T00:15:53.055Z,67.57
2018-09-27T00:18:21.954Z,67.29
2018-09-27T00:20:50.767Z,67.32
2018-09-27T00:23:19.708Z,66.43
2018-09-27T00:25:49.407Z,67.20
2018-09-27T00:28:19.104Z,67.46
2018-09-27T00:30:47.993Z,67.56
2018-09-27T00:33:17.459Z,66.97
2018-09-27T00:35:46.844Z,66.95
2018-09-27T00:38:15.959Z,66.95
2018-09-27T00:40:44.747Z,66.88
2018-09-27T00:43:14.375Z,66.92
2018-09-27T00:45:45.205Z,66.99
2018-09-27T00:48:16.750Z,67.34
2018-09-27T00:50:46.255Z,66.71
2018-09-27T00:53:15.703Z,67.19
2018-09-27T00:55:44.474Z,66.24
2018-09-27T00:58:13.926Z,66.82
2018-09-27T01:00:43.465Z,66.22
2018-09-27T01:03:13.369Z,66.59
2018-09-27T01:05:42.223Z,65.71
2018-09-27T01:08:11.056Z,66.20
2018-09-27T01:10:39.981Z,66.07
2018-09-27T01:13:08.826Z,66.37
2018-09-27T01:15:37.819Z,66.06
2018-09-27T01:18:06.800Z,66.03
2018-09-27T01:20:35.709Z,66.73
2018-09-27T01:23:04.518Z,66.22
2018-09-27T01:25:33.872Z,66.42
2018-09-27T01:28:03.210Z,67.31
2018-09-27T01:30:31.978Z,67.29
2018-09-27T01:33:00.731Z,67.58
2018-09-27T01:35:30.144Z,67.12
2018-09-27T01:37:58.928Z,66.99
2018-09-27T01:40:27.870Z,66.68
2018-09-27T01:42:57.255Z,67.23
2018-09-27T01:45:26.938Z,67.53
2018-09-27T01:47:55.744Z,67.18
2018-09-27T01:50:24.578Z,66.81
2018-09-27T01:52:54.628Z,66.31
2018-09-27T01:55:23.444Z,66.21
2018-09-27T01:57:53.148Z,66.43
2018-09-27T02:00:22.739Z,65.78
2018-09-27T02:02:51.499Z,65.64
2018-09-27T02:05:20.460Z,64.26
2018-09-27T02:07:49.268Z,64.25
2018-09-27T02:10:18.402Z,64.35
2018-09-27T02:12:47.531Z,63.52
2018-09-27T02:15:16.545Z,63.28
2018-09-27T02:17:45.420Z,63.19
2018-09-27T02:20:14.829Z,63.27
2018-09-27T02:22:43.639Z,62.75
2018-09-27T02:25:12.911Z,62.89
2018-09-27T02:27:42.632Z,62.78
2018-09-27T02:30:11.471Z,61.87
2018-09-27T02:32:40.222Z,62.29
2018-09-27T02:35:10.351Z,62.26
2018-09-27T02:37:39.352Z,61.21
2018-09-27T02:40:09.412Z,61.78
2018-09-27T02:42:38.897Z,61.19
2018-09-27T02:45:08.348Z,60.39
2018-09-27T02:47:37.189Z,60.71
2018-09-27T02:50:05.972Z,60.68
2018-09-27T02:52:35.328Z,60.29
2018-09-27T02:55:04.161Z,60.34
2018-09-27T02:57:33.901Z,59.90
2018-09-27T03:00:03.547Z,60.17
2018-09-27T03:02:32.362Z,60.03
2018-09-27T03:05:01.139Z,60.19
2018-09-27T03:07:30.009Z,59.85
2018-09-27T03:09:58.816Z,59.75
2018-09-27T03:12:27.749Z,59.72
2018-09-27T03:14:56.612Z,59.28
2018-09-27T03:17:25.466Z,59.32
2018-09-27T03:19:54.275Z,59.24
2018-09-27T03:22:23.524Z,57.97
2018-09-27T03:24:53.066Z,57.48
2018-09-27T03:27:22.460Z,56.98
2018-09-27T03:29:51.279Z,57.25
2018-09-27T03:32:20.095Z,56.12
2018-09-27T03:34:49.699Z,55.96
2018-09-27T03:37:18.696Z,56.32
2018-09-27T03:39:48.125Z,56.14
2018-09-27T03:42:17.083Z,56.97
2018-09-27T03:44:46.149Z,57.63
2018-09-27T03:47:14.991Z,57.62
2018-09-27T03:49:43.783Z,58.53
2018-09-27T03:52:13.443Z,58.49
2018-09-27T03:54:42.890Z,58.44
2018-09-27T03:57:11.700Z,59.05
2018-09-27T03:59:42.874Z,59.22
2018-09-27T04:02:11.712Z,60.06
2018-09-27T04:04:41.421Z,59.83
2018-09-27T04:07:11.100Z,60.01
2018-09-27T04:09:39.882Z,61.08
2018-09-27T04:12:09.489Z,61.17
2018-09-27T04:14:38.316Z,61.46
2018-09-27T04:17:07.420Z,61.74
2018-09-27T04:19:36.466Z,61.76
2018-09-27T04:22:06.248Z,62.02
2018-09-27T04:24:35.950Z,62.37
2018-09-27T04:27:05.563Z,63.01
2018-09-27T04:29:34.373Z,63.66
2018-09-27T04:32:03.178Z,63.23
2018-09-27T04:34:32.574Z,63.79
2018-09-27T04:37:02.120Z,63.94
2018-09-27T04:39:31.041Z,63.96
2018-09-27T04:41:59.865Z,65.03
2018-09-27T04:44:29.249Z,64.51
2018-09-27T04:46:58.069Z,65.14
2018-09-27T04:49:27.020Z,64.90
2018-09-27T04:51:56.559Z,65.45
2018-09-27T04:54:25.709Z,65.19
2018-09-27T04:56:54.528Z,66.46
2018-09-27T04:59:24.212Z,65.85
2018-09-27T05:01:53.100Z,66.30
2018-09-27T05:04:22.038Z,65.72
2018-09-27T05:06:50.896Z,65.96
2018-09-27T05:09:20.223Z,66.03
2018-09-27T05:11:49.147Z,66.12
2018-09-27T05:14:18.283Z,66.59
2018-09-27T05:16:48.527Z,66.27
2018-09-27T05:19:17.633Z,66.47
2018-09-27T05:21:46.615Z,66.08
2018-09-27T05:24:15.564Z,66.09
2018-09-27T05:26:45.615Z,66.38
2018-09-27T05:29:14.943Z,65.89
2018-09-27T05:31:43.775Z,65.88
2018-09-27T05:34:13.482Z,66.06
2018-09-27T05:36:42.301Z,66.31
2018-09-27T05:39:11.780Z,65.43
2018-09-27T05:41:40.728Z,65.72
2018-09-27T05:44:10.008Z,65.73
2018-09-27T05:46:39.149Z,64.88
2018-09-27T05:49:08.090Z,64.84
2018-09-27T05:51:37.854Z,64.70
2018-09-27T05:54:06.623Z,64.74
2018-09-27T05:56:35.465Z,64.75
2018-09-27T05:59:04.984Z,64.71
2018-09-27T06:01:33.799Z,64.50
2018-09-27T06:04:02.634Z,63.98
2018-09-27T06:06:32.264Z,64.56
2018-09-27T06:09:01.073Z,64.88
2018-09-27T06:11:30.036Z,63.90
2018-09-27T06:13:58.892Z,63.72
2018-09-27T06:16:27.768Z,64.35
2018-09-27T06:18:57.066Z,63.86
2018-09-27T06:21:26.451Z,64.08
2018-09-27T06:23:55.305Z,63.94
2018-09-27T06:26:24.841Z,63.14
2018-09-27T06:28:54.294Z,63.08
2018-09-27T06:31:23.732Z,62.59
2018-09-27T06:33:52.572Z,62.19
2018-09-27T06:36:22.300Z,62.50
2018-09-27T06:38:51.158Z,62.00
2018-09-27T06:41:20.497Z,61.82
2018-09-27T06:43:49.385Z,62.44
2018-09-27T06:46:19.100Z,61.91
2018-09-27T06:48:48.960Z,61.37
2018-09-27T06:51:18.924Z,61.85
2018-09-27T06:53:48.727Z,62.56
2018-09-27T06:56:18.186Z,61.64
2018-09-27T06:58:48.021Z,62.15
2018-09-27T07:01:23.446Z,61.89
2018-09-27T07:03:52.391Z,62.02
2018-09-27T07:06:21.712Z,61.13
2018-09-27T07:08:50.754Z,60.74
2018-09-27T07:11:19.798Z,61.32
2018-09-27T07:13:48.893Z,59.94
2018-09-27T07:16:17.991Z,60.01
2018-09-27T07:18:46.929Z,60.31
2018-09-27T07:21:17.136Z,59.77
2018-09-27T07:23:45.993Z,59.83
2018-09-27T07:26:15.742Z,59.74
2018-09-27T07:28:45.548Z,59.54
2018-09-27T07:31:14.800Z,58.86
2018-09-27T07:33:43.731Z,59.19
2018-09-27T07:36:13.299Z,58.81
2018-09-27T07:38:42.347Z,58.30
2018-09-27T07:41:11.139Z,57.51
2018-09-27T07:43:40.089Z,57.79
2018-09-27T07:46:10.036Z,57.36
2018-09-27T07:48:38.977Z,57.07
2018-09-27T07:51:08.434Z,57.53
2018-09-27T07:53:38.453Z,56.49
2018-09-27T07:56:07.442Z,56.68
2018-09-27T07:58:36.845Z,56.86
2018-09-27T08:01:06.422Z,56.53
2018-09-27T08:03:35.343Z,55.91
2018-09-27T08:06:04.265Z,56.29
2018-09-27T08:08:33.354Z,55.76
2018-09-27T08:11:02.141Z,54.74
2018-09-27T08:13:31.221Z,55.31
2018-09-27T08:16:00.249Z,54.95
2018-09-27T08:18:29.173Z,55.37
2018-09-27T08:20:58.156Z,55.09
2018-09-27T08:23:27.597Z,55.82
2018-09-27T08:25:57.006Z,55.23
2018-09-27T08:28:26.353Z,55.85
2018-09-27T08:30:55.397Z,55.70
2018-09-27T08:33:24.322Z,54.99
2018-09-27T08:35:53.592Z,55.33
2018-09-27T08:38:22.482Z,55.20
2018-09-27T08:40:51.311Z,54.26
2018-09-27T08:43:20.936Z,54.62
2018-09-27T08:45:49.801Z,53.78
2018-09-27T08:48:19.033Z,54.83
2018-09-27T08:50:48.759Z,54.35
2018-09-27T08:53:19.124Z,54.47
2018-09-27T08:55:48.227Z,54.37
2018-09-27T08:58:18.626Z,55.14
2018-09-27T09:00:48.643Z,55.88
2018-09-27T09:03:17.679Z,56.18
2018-09-27T09:05:46.809Z,55.85
2018-09-27T09:08:16.240Z,54.83
2018-09-27T09:10:45.090Z,55.12
2018-09-27T09:13:14.048Z,55.46
2018-09-27T09:18:25.913Z,55.44
2018-09-27T09:20:54.818Z,54.33
2018-09-27T09:23:24.516Z,55.35
2018-09-27T09:25:54.579Z,54.98
2018-09-27T09:28:24.214Z,54.44
2018-09-27T09:30:53.289Z,54.19
2018-09-27T09:33:22.213Z,54.20
2018-09-27T09:35:52.359Z,53.80
2018-09-27T09:38:21.401Z,53.45
2018-09-27T09:40:51.007Z,53.36
2018-09-27T09:43:20.043Z,53.48
2018-09-27T09:45:52.903Z,53.52
2018-09-27T09:48:22.213Z,53.59
2018-09-27T09:50:51.335Z,53.63
2018-09-27T09:53:27.041Z,53.82
2018-09-27T09:56:02.894Z,53.18
2018-09-27T09:59:04.083Z,53.17
2018-09-27T10:01:33.184Z,53.64
2018-09-27T10:06:53.397Z,53.43
2018-09-27T10:09:22.963Z,53.88
2018-09-27T10:11:52.158Z,52.58
2018-09-27T10:14:22.728Z,52.53
2018-09-27T10:17:07.132Z,52.84
2018-09-27T10:22:27.912Z,52.94
2018-09-27T10:25:00.404Z,53.07
2018-09-27T10:27:44.907Z,52.83
2018-09-27T10:30:21.605Z,51.47
2018-09-27T10:33:06.755Z,51.68
2018-09-27T10:39:17.688Z,50.75
2018-09-27T10:47:10.577Z,52.14
2018-09-27T10:50:33.399Z,50.89
2018-09-27T10:53:03.360Z,52.47
2018-09-27T10:55:43.860Z,50.22
2018-09-27T10:58:13.536Z,50.15
2018-09-27T11:00:43.379Z,50.32
2018-09-27T11:03:12.385Z,51.80
2018-09-27T11:05:41.675Z,53.12
2018-09-27T11:08:10.670Z,53.38
2018-09-27T11:10:39.737Z,54.26
2018-09-27T11:13:09.499Z,54.88
2018-09-27T11:15:39.082Z,55.67
2018-09-27T11:18:08.132Z,55.74
2018-09-27T11:20:38.001Z,53.53
2018-09-27T11:23:07.022Z,54.95
2018-09-27T11:25:36.583Z,56.17
2018-09-27T11:28:05.914Z,57.92
2018-09-27T11:30:35.634Z,59.39
2018-09-27T11:33:04.605Z,61.51
2018-09-27T11:35:34.244Z,62.59
2018-09-27T11:38:03.241Z,63.62
2018-09-27T11:40:32.125Z,65.05
2018-09-27T11:43:01.100Z,65.55
2018-09-27T11:45:30.548Z,66.26
2018-09-27T11:47:59.448Z,67.12
2018-09-27T11:50:28.306Z,68.16
2018-09-27T11:52:58.816Z,68.80
2018-09-27T11:55:27.724Z,69.90
2018-09-27T11:57:57.439Z,69.82
2018-09-27T12:00:27.015Z,70.74
2018-09-27T12:02:55.888Z,70.30
2018-09-27T12:05:24.779Z,71.07
2018-09-27T12:07:53.724Z,71.07
2018-09-27T12:10:22.708Z,71.78
2018-09-27T12:12:51.738Z,71.52
2018-09-27T12:15:20.988Z,72.21
2018-09-27T12:17:50.867Z,72.64
2018-09-27T12:20:19.841Z,72.38
2018-09-27T12:22:48.962Z,73.17
2018-09-27T12:25:19.206Z,72.82
2018-09-27T12:27:49.078Z,73.29
2018-09-27T12:30:18.191Z,73.59
2018-09-27T12:32:48.036Z,73.87
2018-09-27T12:35:17.844Z,74.40
2018-09-27T12:37:46.929Z,74.12
2018-09-27T12:40:16.505Z,74.49
2018-09-27T12:42:45.542Z,74.43
2018-09-27T12:45:14.746Z,74.46
2018-09-27T12:47:43.837Z,75.07
2018-09-27T12:50:12.821Z,75.19
2018-09-27T12:52:42.597Z,75.02
2018-09-27T12:55:17.198Z,75.45
2018-09-27T12:57:46.825Z,75.58
2018-09-27T13:00:16.782Z,76.44
2018-09-27T13:02:45.734Z,76.18
2018-09-27T13:05:15.187Z,76.73
2018-09-27T13:07:49.363Z,76.93
2018-09-27T13:10:19.670Z,76.85
2018-09-27T13:12:49.158Z,76.77
2018-09-27T13:15:19.510Z,77.15
2018-09-27T13:18:02.424Z,76.61
2018-09-27T13:20:32.242Z,77.27
2018-09-27T13:23:03.280Z,77.46
2018-09-27T13:25:32.892Z,78.09
2018-09-27T13:28:02.404Z,78.49
2018-09-27T13:30:31.801Z,78.75
2018-09-27T13:33:00.883Z,78.73
2018-09-27T13:35:30.516Z,78.58
2018-09-27T13:37:59.339Z,78.49
2018-09-27T13:40:28.224Z,78.14
2018-09-27T13:42:57.130Z,78.79
2018-09-27T13:45:25.979Z,78.51
2018-09-27T13:47:55.178Z,79.02
2018-09-27T13:50:24.229Z,79.39
2018-09-27T13:52:53.549Z,79.51
2018-09-27T13:55:22.378Z,79.89
2018-09-27T13:57:52.141Z,79.54
2018-09-27T14:00:21.724Z,79.33
2018-09-27T14:02:51.173Z,79.59
2018-09-27T14:05:20.128Z,80.38
2018-09-27T14:07:49.965Z,79.68
2018-09-27T14:10:19.312Z,80.63
2018-09-27T14:12:48.909Z,80.37
2018-09-27T14:15:18.077Z,81.32
2018-09-27T14:17:47.077Z,81.03
2018-09-27T14:20:16.092Z,81.60
2018-09-27T14:22:44.991Z,82.32
2018-09-27T14:25:14.649Z,81.90
2018-09-27T14:27:44.273Z,82.88
2018-09-27T14:30:13.912Z,83.14
2018-09-27T14:32:43.469Z,82.55
2018-09-27T14:35:13.027Z,84.16
2018-09-27T14:37:41.934Z,84.34
2018-09-27T14:40:10.956Z,85.72
2018-09-27T14:42:40.011Z,85.83
2018-09-27T14:45:08.939Z,85.48
2018-09-27T14:47:38.002Z,84.93
2018-09-27T14:50:07.738Z,82.70
2018-09-27T14:52:37.255Z,82.38
2018-09-27T14:55:06.759Z,82.50
2018-09-27T14:57:35.637Z,81.37
2018-09-27T15:00:05.585Z,80.23
2018-09-27T15:02:35.413Z,79.76
2018-09-27T15:05:04.788Z,79.99
2018-09-27T15:07:34.100Z,79.81
2018-09-27T15:10:03.567Z,79.36
2018-09-27T15:12:32.641Z,78.58
2018-09-27T15:15:01.536Z,78.39
2018-09-27T15:17:30.584Z,77.90
2018-09-27T15:19:59.441Z,77.34
2018-09-27T15:22:28.503Z,77.56
2018-09-27T15:24:57.733Z,76.62
2018-09-27T15:27:27.858Z,77.00
2018-09-27T15:29:57.378Z,76.96
2018-09-27T15:32:26.226Z,76.54
2018-09-27T15:34:55.886Z,76.84
2018-09-27T15:37:24.880Z,76.17
2018-09-27T15:39:53.818Z,75.79
2018-09-27T15:42:22.686Z,74.97
2018-09-27T15:44:51.705Z,74.65
2018-09-27T15:47:20.718Z,74.81
2018-09-27T15:49:49.645Z,74.38
2018-09-27T15:52:20.754Z,73.34
2018-09-27T15:54:49.689Z,73.64
2018-09-27T15:57:19.586Z,74.18
2018-09-27T15:59:50.738Z,72.50
2018-09-27T16:02:19.589Z,72.71
2018-09-27T16:04:49.066Z,73.05
2018-09-27T16:07:19.413Z,72.88
2018-09-27T16:09:49.921Z,72.23
2018-09-27T16:12:19.754Z,72.10
2018-09-27T16:14:48.984Z,72.22
2018-09-27T16:17:18.756Z,71.84
2018-09-27T16:19:50.517Z,72.10
2018-09-27T16:22:19.529Z,71.98
2018-09-27T16:24:49.579Z,71.63
2018-09-27T16:30:04.972Z,71.92
2018-09-27T16:32:35.369Z,72.59
2018-09-27T16:35:07.333Z,72.17
2018-09-27T16:37:36.684Z,72.28
2018-09-27T16:40:08.316Z,72.56
2018-09-27T16:47:22.312Z,72.55
2018-09-27T16:49:51.185Z,73.44
2018-09-27T16:52:20.765Z,72.59
2018-09-27T16:54:49.633Z,72.93
2018-09-27T16:57:18.704Z,73.87
2018-09-27T16:59:48.184Z,73.70
2018-09-27T17:02:17.196Z,74.24
2018-09-27T17:04:46.884Z,74.74
2018-09-27T17:07:16.494Z,73.96
2018-09-27T17:09:46.127Z,74.63
2018-09-27T17:12:15.024Z,75.15
2018-09-27T17:14:44.443Z,74.74
2018-09-27T17:17:13.371Z,75.75
2018-09-27T17:19:42.355Z,75.25
2018-09-27T17:22:12.144Z,75.53
2018-09-27T17:24:41.780Z,76.69
2018-09-27T17:27:11.230Z,76.52
2018-09-27T17:29:40.118Z,77.59
2018-09-27T17:32:09.328Z,77.47
2018-09-27T17:34:39.012Z,77.62
2018-09-27T17:37:08.045Z,78.04
2018-09-27T17:39:37.506Z,79.38
2018-09-27T17:42:06.608Z,80.56
2018-09-27T17:44:35.526Z,80.80
2018-09-27T17:47:04.682Z,81.73
2018-09-27T17:49:33.704Z,82.99
2018-09-27T17:52:03.192Z,83.18
2018-09-27T17:54:32.053Z,82.76
2018-09-27T17:57:00.872Z,83.88
2018-09-27T17:59:30.321Z,83.90
2018-09-27T18:01:59.676Z,84.03
2018-09-27T18:04:28.510Z,84.24
2018-09-27T18:06:58.079Z,83.93
2018-09-27T18:09:28.320Z,83.83
2018-09-27T18:11:57.159Z,84.30
2018-09-27T18:14:26.011Z,84.02
2018-09-27T18:16:54.892Z,84.20
2018-09-27T18:19:24.417Z,83.40
2018-09-27T18:21:53.267Z,84.05
2018-09-27T18:24:22.564Z,83.84
2018-09-27T18:26:51.908Z,83.34
2018-09-27T18:29:21.351Z,83.91
2018-09-27T18:31:50.204Z,83.21
2018-09-27T18:34:19.620Z,83.11
2018-09-27T18:36:49.281Z,83.41
2018-09-27T18:39:18.285Z,82.96
2018-09-27T18:41:48.551Z,83.19
2018-09-27T18:44:17.581Z,82.93
2018-09-27T18:46:46.976Z,83.20
2018-09-27T18:49:16.042Z,83.40
2018-09-27T18:51:46.809Z,83.60
2018-09-27T18:54:15.728Z,82.66
2018-09-27T18:56:44.958Z,82.46
2018-09-27T18:59:14.675Z,82.51
2018-09-27T19:01:44.073Z,82.13
2018-09-27T19:04:12.877Z,81.97
2018-09-27T19:06:42.618Z,81.69
2018-09-27T19:09:12.232Z,82.12
2018-09-27T19:11:41.176Z,81.04
2018-09-27T19:14:10.304Z,80.61
2018-09-27T19:16:39.978Z,81.24
2018-09-27T19:19:09.843Z,80.25
2018-09-27T19:21:39.068Z,80.60
2018-09-27T19:24:09.732Z,80.80
2018-09-27T19:26:39.256Z,80.32
2018-09-27T19:29:08.940Z,79.84
2018-09-27T19:31:40.169Z,79.73
2018-09-27T19:39:30.251Z,78.82
2018-09-27T19:41:59.079Z,78.69
2018-09-27T19:44:27.992Z,78.71
2018-09-27T19:46:56.838Z,78.36
2018-09-27T19:49:25.748Z,77.69
2018-09-27T19:51:55.844Z,77.48
2018-09-27T19:54:24.692Z,77.58
2018-09-27T19:56:53.621Z,77.61
2018-09-27T19:59:24.548Z,77.06
2018-09-27T20:01:53.946Z,76.35
2018-09-27T20:04:22.794Z,77.02
2018-09-27T20:06:52.248Z,76.09
2018-09-27T20:09:21.764Z,76.76
2018-09-27T20:11:50.624Z,76.83
2018-09-27T20:14:20.196Z,76.41
2018-09-27T20:16:49.173Z,77.08
2018-09-27T20:19:18.506Z,78.18
2018-09-27T20:21:47.941Z,78.27
2018-09-27T20:24:18.060Z,78.64
2018-09-27T20:26:47.150Z,79.94
2018-09-27T20:29:17.118Z,80.76
2018-09-27T20:31:46.397Z,81.13
2018-09-27T20:34:16.484Z,82.62
2018-09-27T20:36:45.461Z,81.04
2018-09-27T20:39:14.849Z,82.50
2018-09-27T20:41:43.749Z,82.28
2018-09-27T20:44:12.572Z,82.84
2018-09-27T20:46:41.483Z,83.77
2018-09-27T20:49:10.307Z,82.89
2018-09-27T20:51:40.108Z,81.96
2018-09-27T20:54:09.094Z,82.59
2018-09-27T20:56:38.582Z,81.72
2018-09-27T20:59:08.629Z,83.62
2018-09-27T21:01:37.740Z,82.42
2018-09-27T21:04:06.632Z,82.18
2018-09-27T21:06:35.673Z,80.89
2018-09-27T21:09:06.635Z,80.93
2018-09-27T21:11:36.588Z,82.22
2018-09-27T21:14:05.455Z,83.36
2018-09-27T21:16:34.326Z,83.34
2018-09-27T21:19:03.210Z,82.92
2018-09-27T21:21:31.996Z,82.11
2018-09-27T21:24:00.957Z,81.22
2018-09-27T21:26:31.023Z,82.68
2018-09-27T21:29:00.344Z,81.90
2018-09-27T21:31:29.140Z,81.33
2018-09-27T21:33:58.006Z,81.09
2018-09-27T21:36:27.733Z,81.53
2018-09-27T21:38:56.571Z,80.77
2018-09-27T21:41:25.448Z,81.25
2018-09-27T21:43:54.275Z,81.17
2018-09-27T21:46:24.043Z,81.59
2018-09-27T21:48:52.835Z,81.05
2018-09-27T21:51:22.108Z,78.96
2018-09-27T21:53:51.675Z,78.70
2018-09-27T21:56:20.424Z,80.22
2018-09-27T21:58:49.827Z,79.90
2018-09-27T22:01:19.463Z,78.66
2018-09-27T22:03:48.543Z,78.32
2018-09-27T22:06:17.614Z,77.22
2018-09-27T22:08:47.138Z,77.58
2018-09-27T22:11:16.597Z,78.00
2018-09-27T22:13:45.479Z,78.13
2018-09-27T22:16:15.047Z,78.10
2018-09-27T22:18:44.099Z,77.76
2018-09-27T22:21:12.965Z,77.32
2018-09-27T22:23:41.857Z,77.77
2018-09-27T22:26:11.264Z,78.59
2018-09-27T22:28:41.032Z,78.31
2018-09-27T22:31:09.838Z,78.18
2018-09-27T22:33:38.672Z,78.86
2018-09-27T22:36:08.043Z,78.51
2018-09-27T22:38:37.247Z,78.57
2018-09-27T22:41:06.186Z,78.94
2018-09-27T22:43:35.212Z,78.50
2018-09-27T22:46:04.100Z,78.81
2018-09-27T22:48:33.137Z,78.86
2018-09-27T22:51:02.871Z,78.00
2018-09-27T22:53:32.296Z,77.37
2018-09-27T22:56:01.232Z,76.60
2018-09-27T22:58:31.366Z,76.63
2018-09-27T23:01:00.763Z,76.75
2018-09-27T23:03:29.591Z,77.44
2018-09-27T23:05:58.496Z,77.09
2018-09-27T23:08:27.947Z,77.44
2018-09-27T23:10:56.876Z,77.59
2018-09-27T23:13:25.707Z,77.34
2018-09-27T23:15:54.555Z,77.32
2018-09-27T23:18:25.464Z,77.94
2018-09-27T23:20:54.311Z,78.11
2018-09-27T23:23:23.115Z,78.13
2018-09-27T23:25:52.564Z,78.04
2018-09-27T23:28:21.889Z,77.93
2018-09-27T23:30:50.767Z,77.86
2018-09-27T23:33:20.565Z,78.05
2018-09-27T23:35:50.187Z,78.29
2018-09-27T23:38:19.421Z,78.56
2018-09-27T23:40:48.586Z,78.59
2018-09-27T23:43:17.713Z,78.97
2018-09-27T23:45:46.560Z,78.60
2018-09-27T23:48:16.450Z,78.73
2018-09-27T23:50:45.275Z,78.99
2018-09-27T23:53:14.779Z,78.48
2018-09-27T23:55:43.786Z,78.35
2018-09-27T23:58:13.280Z,78.99
